createdAt,value
2018-04-29T00:00:44.527Z,50.92
2018-04-29T00:03:10.677Z,50.88
2018-04-29T00:05:44.425Z,50.91
2018-04-29T00:08:10.561Z,50.89
2018-04-29T00:10:36.723Z,50.89
2018-04-29T00:13:02.903Z,50.91
2018-04-29T00:15:29.052Z,50.95
2018-04-29T00:17:55.228Z,50.96
2018-04-29T00:20:21.366Z,50.93
2018-04-29T00:22:47.541Z,50.96
2018-04-29T00:25:13.712Z,50.99
2018-04-29T00:27:40.305Z,50.96
2018-04-29T00:30:06.454Z,50.94
2018-04-29T00:32:32.600Z,50.96
2018-04-29T00:34:58.876Z,50.95
2018-04-29T00:37:25.065Z,50.97
2018-04-29T00:39:51.236Z,51.04
2018-04-29T00:42:17.420Z,51.07
2018-04-29T00:44:43.635Z,51.06
2018-04-29T00:47:09.964Z,51.06
2018-04-29T00:49:36.096Z,51.06
2018-04-29T00:52:06.110Z,51.07
2018-04-29T00:54:32.678Z,51.06
2018-04-29T00:56:58.821Z,51.07
2018-04-29T00:59:24.974Z,51.05
2018-04-29T01:01:51.205Z,51.05
2018-04-29T01:04:17.691Z,51.05
2018-04-29T01:06:44.119Z,51.05
2018-04-29T01:09:10.298Z,51.06
2018-04-29T01:11:36.599Z,51.11
2018-04-29T01:14:02.751Z,51.15
2018-04-29T01:16:28.893Z,51.14
2018-04-29T01:18:55.101Z,51.13
2018-04-29T01:21:21.593Z,51.13
2018-04-29T01:23:47.733Z,51.14
2018-04-29T01:26:13.908Z,51.15
2018-04-29T01:28:40.053Z,51.17
2018-04-29T01:31:06.341Z,51.15
2018-04-29T01:33:32.475Z,51.13
2018-04-29T01:35:58.619Z,51.16
2018-04-29T01:38:24.790Z,51.17
2018-04-29T01:40:50.970Z,51.18
2018-04-29T01:43:17.187Z,51.20
2018-04-29T01:45:43.378Z,51.20
2018-04-29T01:48:09.569Z,51.18
2018-04-29T01:50:35.702Z,51.20
2018-04-29T01:53:01.990Z,51.23
2018-04-29T01:55:28.141Z,51.21
2018-04-29T01:57:54.285Z,51.25
2018-04-29T02:00:20.873Z,51.26
2018-04-29T02:02:47.019Z,51.28
2018-04-29T02:05:13.169Z,51.29
2018-04-29T02:07:39.621Z,51.29
2018-04-29T02:10:05.768Z,51.26
2018-04-29T02:12:31.919Z,51.25
2018-04-29T02:14:58.085Z,51.24
2018-04-29T02:17:24.244Z,51.26
2018-04-29T02:19:50.521Z,51.26
2018-04-29T02:22:16.991Z,51.26
2018-04-29T02:24:43.125Z,51.25
2018-04-29T02:27:09.551Z,51.27
2018-04-29T02:29:35.705Z,51.29
2018-04-29T02:32:02.012Z,51.26
2018-04-29T02:34:28.264Z,51.26
2018-04-29T02:36:54.669Z,51.24
2018-04-29T02:39:20.834Z,51.23
2018-04-29T02:41:46.978Z,51.22
2018-04-29T02:44:13.259Z,51.22
2018-04-29T02:46:39.411Z,51.21
2018-04-29T02:49:05.910Z,51.19
2018-04-29T02:51:32.114Z,51.19
2018-04-29T02:53:58.266Z,51.17
2018-04-29T02:56:24.417Z,51.18
2018-04-29T02:58:50.589Z,51.18
2018-04-29T03:01:16.725Z,51.17
2018-04-29T03:03:43.322Z,51.17
2018-04-29T03:06:09.491Z,51.21
2018-04-29T03:08:35.661Z,51.20
2018-04-29T03:11:01.827Z,51.18
2018-04-29T03:13:28.113Z,51.17
2018-04-29T03:15:54.253Z,51.13
2018-04-29T03:18:20.650Z,51.11
2018-04-29T03:20:46.939Z,51.12
2018-04-29T03:23:13.093Z,51.13
2018-04-29T03:25:39.244Z,51.13
2018-04-29T03:28:05.463Z,51.13
2018-04-29T03:30:31.606Z,51.12
2018-04-29T03:32:57.749Z,51.09
2018-04-29T03:35:23.922Z,51.08
2018-04-29T03:37:50.066Z,51.10
2018-04-29T03:40:16.352Z,51.09
2018-04-29T03:42:42.511Z,51.10
2018-04-29T03:45:08.662Z,51.13
2018-04-29T03:47:34.954Z,51.13
2018-04-29T03:50:01.409Z,51.11
2018-04-29T03:52:27.557Z,51.13
2018-04-29T03:54:54.111Z,51.15
2018-04-29T04:00:34.386Z,51.09
2018-04-29T04:03:12.796Z,51.13
2018-04-29T04:05:38.929Z,51.12
2018-04-29T04:08:05.119Z,51.08
2018-04-29T04:10:31.269Z,51.06
2018-04-29T04:12:57.434Z,51.05
2018-04-29T04:15:23.907Z,51.05
2018-04-29T04:17:50.120Z,51.05
2018-04-29T04:20:16.256Z,51.05
2018-04-29T04:22:42.407Z,51.06
2018-04-29T04:25:08.661Z,51.02
2018-04-29T04:27:34.800Z,51.03
2018-04-29T04:30:01.062Z,51.00
2018-04-29T04:32:34.976Z,50.99
2018-04-29T04:35:01.120Z,50.98
2018-04-29T04:37:27.532Z,50.97
2018-04-29T04:39:53.727Z,51.00
2018-04-29T04:42:19.861Z,51.00
2018-04-29T04:44:46.024Z,50.98
2018-04-29T04:47:12.192Z,50.92
2018-04-29T04:49:38.359Z,50.91
2018-04-29T04:52:04.654Z,50.92
2018-04-29T04:54:30.805Z,50.87
2018-04-29T04:56:56.952Z,50.82
2018-04-29T04:59:23.127Z,50.80
2018-04-29T05:01:49.265Z,50.79
2018-04-29T05:04:15.735Z,50.78
2018-04-29T05:06:41.884Z,50.74
2018-04-29T05:09:08.048Z,50.68
2018-04-29T05:11:34.233Z,50.66
2018-04-29T05:14:00.462Z,50.63
2018-04-29T05:16:26.629Z,50.60
2018-04-29T05:18:52.832Z,50.57
2018-04-29T05:21:18.970Z,50.54
2018-04-29T05:23:45.157Z,50.51
2018-04-29T05:26:11.294Z,50.47
2018-04-29T05:28:37.506Z,50.39
2018-04-29T05:31:03.697Z,50.32
2018-04-29T05:33:29.904Z,50.24
2018-04-29T05:35:56.048Z,50.19
2018-04-29T05:38:22.523Z,50.17
2018-04-29T05:40:48.696Z,50.16
2018-04-29T05:43:14.833Z,50.12
2018-04-29T05:45:41.049Z,50.09
2018-04-29T05:48:07.538Z,50.06
2018-04-29T05:50:33.714Z,50.03
2018-04-29T05:53:00.450Z,50.02
2018-04-29T05:55:26.633Z,49.97
2018-04-29T05:57:52.778Z,49.86
2018-04-29T06:00:18.953Z,49.81
2018-04-29T06:02:45.560Z,49.75
2018-04-29T06:05:11.701Z,49.71
2018-04-29T06:07:37.841Z,49.69
2018-04-29T06:10:04.046Z,49.66
2018-04-29T06:12:30.218Z,49.63
2018-04-29T06:14:56.362Z,49.56
2018-04-29T06:17:22.890Z,49.56
2018-04-29T06:19:49.046Z,49.59
2018-04-29T06:22:15.181Z,49.57
2018-04-29T06:24:41.349Z,49.54
2018-04-29T06:27:07.481Z,49.58
2018-04-29T06:29:34.166Z,49.59
2018-04-29T06:32:00.313Z,49.57
2018-04-29T06:34:26.795Z,49.48
2018-04-29T06:36:53.227Z,49.38
2018-04-29T06:39:19.412Z,49.32
2018-04-29T06:41:45.560Z,49.27
2018-04-29T06:44:11.729Z,49.22
2018-04-29T06:46:37.873Z,49.20
2018-04-29T06:49:04.823Z,49.22
2018-04-29T06:51:30.981Z,49.21
2018-04-29T06:53:57.129Z,49.20
2018-04-29T06:56:23.426Z,49.24
2018-04-29T06:58:49.572Z,49.25
2018-04-29T07:01:15.717Z,49.25
2018-04-29T07:03:41.992Z,49.28
2018-04-29T07:06:08.137Z,49.26
2018-04-29T07:08:34.287Z,49.14
2018-04-29T07:11:00.488Z,49.03
2018-04-29T07:13:26.633Z,48.90
2018-04-29T07:15:52.768Z,48.83
2018-04-29T07:18:18.958Z,48.77
2018-04-29T07:20:45.458Z,48.77
2018-04-29T07:23:11.638Z,48.78
2018-04-29T07:25:37.786Z,48.80
2018-04-29T07:28:04.001Z,48.81
2018-04-29T07:30:30.156Z,48.81
2018-04-29T07:32:56.314Z,48.78
2018-04-29T07:35:22.665Z,48.68
2018-04-29T07:37:48.808Z,48.59
2018-04-29T07:40:14.957Z,48.51
2018-04-29T07:42:41.129Z,48.48
2018-04-29T07:45:07.301Z,48.50
2018-04-29T07:47:33.985Z,48.57
2018-04-29T07:50:00.132Z,48.64
2018-04-29T07:52:26.329Z,48.71
2018-04-29T07:54:52.566Z,48.73
2018-04-29T07:57:18.723Z,48.72
2018-04-29T07:59:44.899Z,48.71
2018-04-29T08:02:11.056Z,48.68
2018-04-29T08:04:37.231Z,48.65
2018-04-29T08:07:03.412Z,48.61
2018-04-29T08:09:29.601Z,48.56
2018-04-29T08:11:55.749Z,48.54
2018-04-29T08:14:21.897Z,48.55
2018-04-29T08:16:48.127Z,48.53
2018-04-29T08:19:14.254Z,48.51
2018-04-29T08:21:40.389Z,48.51
2018-04-29T08:24:06.596Z,48.51
2018-04-29T08:26:32.744Z,48.49
2018-04-29T08:28:58.889Z,48.47
2018-04-29T08:31:25.065Z,48.41
2018-04-29T08:33:52.180Z,48.37
2018-04-29T08:36:18.334Z,48.34
2018-04-29T08:38:44.484Z,48.34
2018-04-29T08:41:10.786Z,48.35
2018-04-29T08:43:36.923Z,48.31
2018-04-29T08:46:03.075Z,48.25
2018-04-29T08:48:29.835Z,48.21
2018-04-29T08:50:55.980Z,48.18
2018-04-29T08:53:22.153Z,48.17
2018-04-29T08:55:48.647Z,48.15
2018-04-29T08:58:15.077Z,48.13
2018-04-29T09:00:41.274Z,48.09
2018-04-29T09:03:07.413Z,48.02
2018-04-29T09:05:33.969Z,47.98
2018-04-29T09:08:00.152Z,47.96
2018-04-29T09:10:26.333Z,47.92
2018-04-29T09:12:52.858Z,47.88
2018-04-29T09:15:19.019Z,47.86
2018-04-29T09:17:45.518Z,47.80
2018-04-29T09:20:11.676Z,47.79
2018-04-29T09:22:38.283Z,47.82
2018-04-29T09:25:04.713Z,47.80
2018-04-29T09:27:30.859Z,47.76
2018-04-29T09:29:57.030Z,47.69
2018-04-29T09:32:23.185Z,47.64
2018-04-29T09:34:49.469Z,47.57
2018-04-29T09:37:15.672Z,47.52
2018-04-29T09:39:41.838Z,47.47
2018-04-29T09:42:08.133Z,47.46
2018-04-29T09:44:34.385Z,47.45
2018-04-29T09:47:00.617Z,47.45
2018-04-29T09:49:26.809Z,47.44
2018-04-29T09:51:53.029Z,47.44
2018-04-29T09:54:19.200Z,47.46
2018-04-29T09:56:45.344Z,47.44
2018-04-29T09:59:12.212Z,47.41
2018-04-29T10:01:38.398Z,47.35
2018-04-29T10:04:04.548Z,47.34
2018-04-29T10:06:30.740Z,47.32
2018-04-29T10:08:56.920Z,47.31
2018-04-29T10:11:23.247Z,47.25
2018-04-29T10:13:49.394Z,47.16
2018-04-29T10:16:15.541Z,47.10
2018-04-29T10:18:41.834Z,47.11
2018-04-29T10:21:08.022Z,47.21
2018-04-29T10:23:34.183Z,47.15
2018-04-29T10:26:00.348Z,47.11
2018-04-29T10:28:26.499Z,46.97
2018-04-29T10:30:52.669Z,46.82
2018-04-29T10:33:18.850Z,46.73
2018-04-29T10:35:45.016Z,46.67
2018-04-29T10:38:11.862Z,46.62
2018-04-29T10:40:38.012Z,46.57
2018-04-29T10:43:04.193Z,46.54
2018-04-29T10:45:30.363Z,46.44
2018-04-29T10:47:56.517Z,46.27
2018-04-29T10:50:22.760Z,46.10
2018-04-29T10:52:49.373Z,45.97
2018-04-29T10:55:15.562Z,45.98
2018-04-29T10:57:41.697Z,46.08
2018-04-29T11:00:07.932Z,46.15
2018-04-29T11:02:34.117Z,46.18
2018-04-29T11:05:00.297Z,46.16
2018-04-29T11:07:26.576Z,46.18
2018-04-29T11:09:52.829Z,46.15
2018-04-29T11:12:19.204Z,46.11
2018-04-29T11:14:45.588Z,46.13
2018-04-29T11:17:11.722Z,46.19
2018-04-29T11:19:37.874Z,46.25
2018-04-29T11:22:04.152Z,46.28
2018-04-29T11:24:30.196Z,46.32
2018-04-29T11:26:56.394Z,46.43
2018-04-29T11:29:22.561Z,46.58
2018-04-29T11:31:48.991Z,46.57
2018-04-29T11:34:15.158Z,46.60
2018-04-29T11:36:41.360Z,46.69
2018-04-29T11:39:07.543Z,46.87
2018-04-29T11:41:33.694Z,47.07
2018-04-29T11:43:59.835Z,47.19
2018-04-29T11:46:26.113Z,47.25
2018-04-29T11:48:52.604Z,47.29
2018-04-29T11:51:18.745Z,47.34
2018-04-29T11:53:44.912Z,47.41
2018-04-29T11:56:11.050Z,47.46
2018-04-29T11:58:37.325Z,47.49
2018-04-29T12:01:03.566Z,47.54
2018-04-29T12:03:29.717Z,47.53
2018-04-29T12:05:55.893Z,47.49
2018-04-29T12:08:22.231Z,47.47
2018-04-29T12:10:48.511Z,47.44
2018-04-29T12:13:14.697Z,47.46
2018-04-29T12:15:41.193Z,47.51
2018-04-29T12:18:07.370Z,47.57
2018-04-29T12:20:33.512Z,47.60
2018-04-29T12:22:59.686Z,47.60
2018-04-29T12:25:25.837Z,47.64
2018-04-29T12:27:52.028Z,47.67
2018-04-29T12:30:18.176Z,47.75
2018-04-29T12:32:44.364Z,47.76
2018-04-29T12:35:10.517Z,47.75
2018-04-29T12:37:36.665Z,47.76
2018-04-29T12:40:02.849Z,47.82
2018-04-29T12:42:28.997Z,47.90
2018-04-29T12:44:55.277Z,47.93
2018-04-29T12:47:21.425Z,47.89
2018-04-29T12:49:47.581Z,47.85
2018-04-29T12:52:13.807Z,47.86
2018-04-29T12:54:40.229Z,47.86
2018-04-29T12:57:06.661Z,47.93
2018-04-29T12:59:32.849Z,48.02
2018-04-29T13:01:59.028Z,48.13
2018-04-29T13:04:25.190Z,48.18
2018-04-29T13:06:51.369Z,48.19
2018-04-29T13:09:17.537Z,48.23
2018-04-29T13:11:43.885Z,48.28
2018-04-29T13:14:10.033Z,48.31
2018-04-29T13:16:36.197Z,48.31
2018-04-29T13:19:02.384Z,48.30
2018-04-29T13:21:28.578Z,48.28
2018-04-29T13:23:55.073Z,48.25
2018-04-29T13:26:21.229Z,48.24
2018-04-29T13:28:47.388Z,48.25
2018-04-29T13:31:13.578Z,48.25
2018-04-29T13:33:39.765Z,48.23
2018-04-29T13:36:06.620Z,48.19
2018-04-29T13:38:32.770Z,48.00
2018-04-29T13:40:58.934Z,47.63
2018-04-29T13:43:25.107Z,47.24
2018-04-29T13:45:51.259Z,47.14
2018-04-29T13:48:17.793Z,47.15
2018-04-29T13:50:44.192Z,47.17
2018-04-29T13:53:10.375Z,47.22
2018-04-29T13:55:36.552Z,47.30
2018-04-29T13:58:02.712Z,47.41
2018-04-29T14:00:29.012Z,47.52
2018-04-29T14:02:55.167Z,47.58
2018-04-29T14:05:21.323Z,47.58
2018-04-29T14:07:47.796Z,47.59
2018-04-29T14:10:14.039Z,47.57
2018-04-29T14:12:40.967Z,47.49
2018-04-29T14:15:07.114Z,47.41
2018-04-29T14:17:33.266Z,47.48
2018-04-29T14:19:59.969Z,47.60
2018-04-29T14:22:26.070Z,47.69
2018-04-29T14:24:52.221Z,47.73
2018-04-29T14:27:18.398Z,47.71
2018-04-29T14:29:44.869Z,47.65
2018-04-29T14:32:11.063Z,47.50
2018-04-29T14:34:37.208Z,47.35
2018-04-29T14:37:03.423Z,47.26
2018-04-29T14:39:29.591Z,47.07
2018-04-29T14:41:55.736Z,46.87
2018-04-29T14:44:22.649Z,46.71
2018-04-29T14:46:48.793Z,46.62
2018-04-29T14:49:14.936Z,46.34
2018-04-29T14:51:41.105Z,46.05
2018-04-29T14:54:07.280Z,44.72
2018-04-29T14:56:33.457Z,44.38
2018-04-29T14:58:59.609Z,43.69
2018-04-29T15:01:25.795Z,42.27
2018-04-29T15:03:51.962Z,40.88
2018-04-29T15:06:18.249Z,40.32
2018-04-29T15:08:44.720Z,41.55
2018-04-29T15:11:10.866Z,42.66
2018-04-29T15:13:37.058Z,43.40
2018-04-29T15:16:03.231Z,43.36
2018-04-29T15:18:41.761Z,42.53
2018-04-29T15:21:07.911Z,41.78
2018-04-29T15:23:34.078Z,42.89
2018-04-29T15:26:00.214Z,43.90
2018-04-29T15:28:26.775Z,44.36
2018-04-29T15:30:52.909Z,44.00
2018-04-29T15:33:19.298Z,44.80
2018-04-29T15:35:45.581Z,45.38
2018-04-29T15:38:11.730Z,45.69
2018-04-29T15:40:37.947Z,45.77
2018-04-29T15:43:04.249Z,45.91
2018-04-29T15:45:30.485Z,46.07
2018-04-29T15:47:56.633Z,46.23
2018-04-29T15:50:22.943Z,46.42
2018-04-29T15:52:49.088Z,46.56
2018-04-29T15:55:15.232Z,46.69
2018-04-29T15:57:41.677Z,46.64
2018-04-29T16:00:07.878Z,46.33
2018-04-29T16:02:34.010Z,46.20
2018-04-29T16:05:00.570Z,46.29
2018-04-29T16:07:26.714Z,46.51
2018-04-29T16:09:52.856Z,46.77
2018-04-29T16:12:19.129Z,46.97
2018-04-29T16:14:45.291Z,47.10
2018-04-29T16:17:11.454Z,47.18
2018-04-29T16:19:37.626Z,47.23
2018-04-29T16:22:04.301Z,47.17
2018-04-29T16:24:30.802Z,47.14
2018-04-29T16:26:56.975Z,47.13
2018-04-29T16:29:23.143Z,47.12
2018-04-29T16:31:49.586Z,47.06
2018-04-29T16:34:16.224Z,47.01
2018-04-29T16:36:42.428Z,46.88
2018-04-29T16:39:08.890Z,46.84
2018-04-29T16:41:35.077Z,46.93
2018-04-29T16:44:01.227Z,47.00
2018-04-29T16:46:27.674Z,46.84
2018-04-29T16:48:53.849Z,46.28
2018-04-29T16:51:19.997Z,45.88
2018-04-29T16:53:46.184Z,45.71
2018-04-29T16:56:12.320Z,45.58
2018-04-29T16:58:38.484Z,45.53
2018-04-29T17:01:04.935Z,45.57
2018-04-29T17:03:31.582Z,45.40
2018-04-29T17:05:57.718Z,45.23
2018-04-29T17:08:23.864Z,45.30
2018-04-29T17:10:50.297Z,45.24
2018-04-29T17:13:16.430Z,45.33
2018-04-29T17:15:42.597Z,45.38
2018-04-29T17:18:08.750Z,45.45
2018-04-29T17:20:34.900Z,45.64
2018-04-29T17:23:01.028Z,45.93
2018-04-29T17:25:27.211Z,46.20
2018-04-29T17:27:53.354Z,46.43
2018-04-29T17:30:19.521Z,46.65
2018-04-29T17:32:45.665Z,46.80
2018-04-29T17:35:11.951Z,46.91
2018-04-29T17:37:38.097Z,46.95
2018-04-29T17:40:04.241Z,47.03
2018-04-29T17:42:30.433Z,47.05
2018-04-29T17:44:56.572Z,47.06
2018-04-29T17:47:22.780Z,47.13
2018-04-29T17:49:49.198Z,47.17
2018-04-29T17:52:15.338Z,47.19
2018-04-29T17:54:41.517Z,47.27
2018-04-29T17:57:07.685Z,47.36
2018-04-29T17:59:34.109Z,47.43
2018-04-29T18:02:00.273Z,47.53
2018-04-29T18:04:26.912Z,47.63
2018-04-29T18:06:53.061Z,47.67
2018-04-29T18:09:19.533Z,47.78
2018-04-29T18:11:46.068Z,47.88
2018-04-29T18:14:12.262Z,47.96
2018-04-29T18:16:38.456Z,48.04
2018-04-29T18:19:04.632Z,48.13
2018-04-29T18:21:30.818Z,48.22
2018-04-29T18:23:56.978Z,48.32
2018-04-29T18:26:23.173Z,48.42
2018-04-29T18:28:49.321Z,48.50
2018-04-29T18:31:15.608Z,48.60
2018-04-29T18:33:41.759Z,48.70
2018-04-29T18:36:07.965Z,48.81
2018-04-29T18:38:34.133Z,48.88
2018-04-29T18:41:00.277Z,49.02
2018-04-29T18:43:26.444Z,49.07
2018-04-29T18:45:52.593Z,49.13
2018-04-29T18:48:18.890Z,49.21
2018-04-29T18:50:45.223Z,49.29
2018-04-29T18:53:11.211Z,49.38
2018-04-29T18:55:37.906Z,49.45
2018-04-29T18:58:04.405Z,49.51
2018-04-29T19:00:30.940Z,49.54
2018-04-29T19:02:57.248Z,49.58
2018-04-29T19:05:35.748Z,49.64
2018-04-29T19:08:01.933Z,49.71
2018-04-29T19:10:28.090Z,49.74
2018-04-29T19:12:54.323Z,49.78
2018-04-29T19:15:20.480Z,49.83
2018-04-29T19:17:46.616Z,49.89
2018-04-29T19:20:13.058Z,49.92
2018-04-29T19:22:39.213Z,49.96
2018-04-29T19:25:05.848Z,49.98
2018-04-29T19:27:32.007Z,50.02
2018-04-29T19:29:58.472Z,50.06
2018-04-29T19:32:24.672Z,50.05
2018-04-29T19:34:50.812Z,50.10
2018-04-29T19:37:17.407Z,50.13
2018-04-29T19:39:43.550Z,50.18
2018-04-29T19:42:09.705Z,50.22
2018-04-29T19:44:35.870Z,50.20
2018-04-29T19:47:02.018Z,50.21
2018-04-29T19:49:28.222Z,50.23
2018-04-29T19:51:54.375Z,50.24
2018-04-29T19:54:20.554Z,50.27
2018-04-29T19:56:46.735Z,50.29
2018-04-29T19:59:12.885Z,50.30
2018-04-29T20:01:39.571Z,50.35
2018-04-29T20:04:05.977Z,50.37
2018-04-29T20:06:32.125Z,50.39
2018-04-29T20:08:58.298Z,50.41
2018-04-29T20:11:24.462Z,50.43
2018-04-29T20:13:50.892Z,50.45
2018-04-29T20:16:17.322Z,50.50
2018-04-29T20:18:43.463Z,50.50
2018-04-29T20:21:09.604Z,50.50
2018-04-29T20:23:35.793Z,50.51
2018-04-29T20:26:02.078Z,50.53
2018-04-29T20:28:28.224Z,50.54
2018-04-29T20:30:54.381Z,50.56
2018-04-29T20:33:20.896Z,50.57
2018-04-29T20:35:47.034Z,50.61
2018-04-29T20:38:13.187Z,50.60
2018-04-29T20:40:39.441Z,50.61
2018-04-29T20:43:05.633Z,50.64
2018-04-29T20:45:32.060Z,50.66
2018-04-29T20:47:58.265Z,50.67
2018-04-29T20:50:24.423Z,50.69
2018-04-29T20:52:50.564Z,50.71
2018-04-29T20:55:16.743Z,50.71
2018-04-29T20:57:42.941Z,50.72
2018-04-29T21:00:09.124Z,50.75
2018-04-29T21:02:35.559Z,50.75
2018-04-29T21:05:01.729Z,50.75
2018-04-29T21:07:27.934Z,50.75
2018-04-29T21:09:54.098Z,50.79
2018-04-29T21:12:20.283Z,50.75
2018-04-29T21:14:46.457Z,50.80
2018-04-29T21:17:13.032Z,50.82
2018-04-29T21:19:39.140Z,50.82
2018-04-29T21:22:05.308Z,50.80
2018-04-29T21:24:31.448Z,50.82
2018-04-29T21:26:58.042Z,50.85
2018-04-29T21:29:24.186Z,50.86
2018-04-29T21:31:50.334Z,50.86
2018-04-29T21:34:16.637Z,50.85
2018-04-29T21:36:42.792Z,50.85
2018-04-29T21:39:08.946Z,50.85
2018-04-29T21:41:35.537Z,50.87
2018-04-29T21:44:01.765Z,50.85
2018-04-29T21:46:27.904Z,50.86
2018-04-29T21:48:54.078Z,50.88
2018-04-29T21:51:20.221Z,50.90
2018-04-29T21:53:46.410Z,50.92
2018-04-29T21:56:12.594Z,50.91
2018-04-29T21:58:38.736Z,50.91
2018-04-29T22:01:05.237Z,50.93
2018-04-29T22:03:31.674Z,50.92
2018-04-29T22:05:57.869Z,50.92
2018-04-29T22:08:24.153Z,50.92
2018-04-29T22:10:50.297Z,50.92
2018-04-29T22:13:16.440Z,50.92
2018-04-29T22:15:42.638Z,50.93
2018-04-29T22:18:08.787Z,50.96
2018-04-29T22:20:34.975Z,50.96
2018-04-29T22:23:01.119Z,50.97
2018-04-29T22:25:27.269Z,50.99
2018-04-29T22:27:53.441Z,50.99
2018-04-29T22:30:19.589Z,51.00
2018-04-29T22:32:46.141Z,51.00
2018-04-29T22:35:12.283Z,50.99
2018-04-29T22:37:38.761Z,50.98
2018-04-29T22:40:04.959Z,51.00
2018-04-29T22:42:31.524Z,51.03
2018-04-29T22:44:57.679Z,51.02
2018-04-29T22:47:23.822Z,51.04
2018-04-29T22:49:49.999Z,51.01
2018-04-29T22:52:16.162Z,50.99
2018-04-29T22:54:42.331Z,50.99
2018-04-29T22:57:08.484Z,50.99
2018-04-29T22:59:34.631Z,51.01
2018-04-29T23:02:00.913Z,51.02
2018-04-29T23:04:27.070Z,51.02
2018-04-29T23:06:53.213Z,51.01
2018-04-29T23:09:19.464Z,50.99
2018-04-29T23:11:45.750Z,50.98
2018-04-29T23:14:12.055Z,50.95
2018-04-29T23:16:38.213Z,50.95
2018-04-29T23:19:04.827Z,50.97
2018-04-29T23:21:30.973Z,50.97
2018-04-29T23:23:57.119Z,50.97
2018-04-29T23:26:23.769Z,50.97
2018-04-29T23:28:49.941Z,51.00
2018-04-29T23:31:16.098Z,50.98
2018-04-29T23:33:42.310Z,50.98
2018-04-29T23:36:08.464Z,50.97
2018-04-29T23:38:34.978Z,50.94
2018-04-29T23:41:01.514Z,50.96
2018-04-29T23:43:27.670Z,50.96
2018-04-29T23:45:53.816Z,50.94
2018-04-29T23:48:19.999Z,50.94
2018-04-29T23:50:46.161Z,50.95
2018-04-29T23:53:12.351Z,50.96
2018-04-29T23:55:38.494Z,50.95
2018-04-29T23:58:04.668Z,50.94
